sensor_id;sensor_type;location;lat;lon;timestamp;P1;durP1;ratioP1;P2;durP2;ratioP2
74335;SDS011;62755;-33.398;-70.572;2022-09-12T00:01:45;24.08;;;11.18;;
74335;SDS011;62755;-33.398;-70.572;2022-09-12T00:04:15;13.80;;;8.02;;
74335;SDS011;62755;-33.398;-70.572;2022-09-12T00:06:44;19.45;;;9.50;;
74335;SDS011;62755;-33.398;-70.572;2022-09-12T00:09:14;18.95;;;9.85;;
74335;SDS011;62755;-33.398;-70.572;2022-09-12T00:11:46;16.20;;;8.93;;
74335;SDS011;62755;-33.398;-70.572;2022-09-12T00:14:16;16.05;;;8.07;;
74335;SDS011;62755;-33.398;-70.572;2022-09-12T00:16:46;21.08;;;8.38;;
74335;SDS011;62755;-33.398;-70.572;2022-09-12T00:19:15;20.08;;;9.93;;
74335;SDS011;62755;-33.398;-70.572;2022-09-12T00:21:45;22.02;;;11.10;;
74335;SDS011;62755;-33.398;-70.572;2022-09-12T00:24:15;19.73;;;11.90;;
74335;SDS011;62755;-33.398;-70.572;2022-09-12T00:26:46;17.65;;;9.18;;
74335;SDS011;62755;-33.398;-70.572;2022-09-12T00:29:17;26.95;;;14.65;;
74335;SDS011;62755;-33.398;-70.572;2022-09-12T00:31:48;24.38;;;11.75;;
74335;SDS011;62755;-33.398;-70.572;2022-09-12T00:34:17;21.70;;;11.50;;
74335;SDS011;62755;-33.398;-70.572;2022-09-12T00:36:47;21.48;;;11.05;;
74335;SDS011;62755;-33.398;-70.572;2022-09-12T00:39:18;37.30;;;12.00;;
74335;SDS011;62755;-33.398;-70.572;2022-09-12T00:41:47;24.10;;;10.52;;
74335;SDS011;62755;-33.398;-70.572;2022-09-12T00:47:13;20.33;;;10.57;;
74335;SDS011;62755;-33.398;-70.572;2022-09-12T00:49:47;21.13;;;14.40;;
74335;SDS011;62755;-33.398;-70.572;2022-09-12T00:52:20;24.48;;;13.50;;
74335;SDS011;62755;-33.398;-70.572;2022-09-12T00:54:57;23.70;;;11.88;;
74335;SDS011;62755;-33.398;-70.572;2022-09-12T00:57:35;19.23;;;9.90;;
74335;SDS011;62755;-33.398;-70.572;2022-09-12T01:00:09;17.38;;;9.50;;
74335;SDS011;62755;-33.398;-70.572;2022-09-12T01:02:41;20.25;;;9.75;;
74335;SDS011;62755;-33.398;-70.572;2022-09-12T01:05:12;21.95;;;9.77;;
74335;SDS011;62755;-33.398;-70.572;2022-09-12T01:07:42;23.17;;;10.88;;
74335;SDS011;62755;-33.398;-70.572;2022-09-12T01:10:15;26.70;;;16.45;;
74335;SDS011;62755;-33.398;-70.572;2022-09-12T01:12:45;25.77;;;13.77;;
74335;SDS011;62755;-33.398;-70.572;2022-09-12T01:15:16;25.95;;;15.65;;
74335;SDS011;62755;-33.398;-70.572;2022-09-12T01:17:50;32.28;;;17.10;;
74335;SDS011;62755;-33.398;-70.572;2022-09-12T01:20:40;28.42;;;13.20;;
74335;SDS011;62755;-33.398;-70.572;2022-09-12T01:23:34;20.50;;;10.43;;
74335;SDS011;62755;-33.398;-70.572;2022-09-12T01:26:38;17.13;;;9.65;;
74335;SDS011;62755;-33.398;-70.572;2022-09-12T01:29:34;24.83;;;11.45;;
74335;SDS011;62755;-33.398;-70.572;2022-09-12T01:32:27;20.52;;;10.63;;
74335;SDS011;62755;-33.398;-70.572;2022-09-12T01:35:07;18.88;;;12.15;;
74335;SDS011;62755;-33.398;-70.572;2022-09-12T01:40:17;17.90;;;11.20;;
74335;SDS011;62755;-33.398;-70.572;2022-09-12T01:42:52;22.77;;;13.85;;
74335;SDS011;62755;-33.398;-70.572;2022-09-12T01:45:27;31.38;;;17.48;;
74335;SDS011;62755;-33.398;-70.572;2022-09-12T01:48:01;38.92;;;22.10;;
74335;SDS011;62755;-33.398;-70.572;2022-09-12T01:50:39;30.63;;;19.17;;
74335;SDS011;62755;-33.398;-70.572;2022-09-12T01:53:14;25.42;;;16.75;;
74335;SDS011;62755;-33.398;-70.572;2022-09-12T01:55:48;28.42;;;17.48;;
74335;SDS011;62755;-33.398;-70.572;2022-09-12T01:58:23;29.95;;;16.20;;
74335;SDS011;62755;-33.398;-70.572;2022-09-12T02:00:57;34.75;;;18.77;;
74335;SDS011;62755;-33.398;-70.572;2022-09-12T02:03:32;25.67;;;16.48;;
74335;SDS011;62755;-33.398;-70.572;2022-09-12T02:06:10;28.35;;;17.05;;
74335;SDS011;62755;-33.398;-70.572;2022-09-12T02:08:46;25.48;;;16.95;;
74335;SDS011;62755;-33.398;-70.572;2022-09-12T02:11:19;27.80;;;17.15;;
74335;SDS011;62755;-33.398;-70.572;2022-09-12T02:13:50;24.38;;;16.77;;
74335;SDS011;62755;-33.398;-70.572;2022-09-12T02:16:25;30.65;;;17.55;;
74335;SDS011;62755;-33.398;-70.572;2022-09-12T02:19:02;28.33;;;16.85;;
74335;SDS011;62755;-33.398;-70.572;2022-09-12T02:21:34;27.65;;;16.27;;
74335;SDS011;62755;-33.398;-70.572;2022-09-12T02:24:07;24.08;;;16.17;;
74335;SDS011;62755;-33.398;-70.572;2022-09-12T02:26:42;23.13;;;16.20;;
74335;SDS011;62755;-33.398;-70.572;2022-09-12T02:29:15;26.42;;;17.67;;
74335;SDS011;62755;-33.398;-70.572;2022-09-12T02:31:45;27.88;;;17.50;;
74335;SDS011;62755;-33.398;-70.572;2022-09-12T02:34:24;29.27;;;16.65;;
74335;SDS011;62755;-33.398;-70.572;2022-09-12T02:37:06;31.05;;;17.55;;
74335;SDS011;62755;-33.398;-70.572;2022-09-12T02:39:44;37.03;;;20.67;;
74335;SDS011;62755;-33.398;-70.572;2022-09-12T02:42:14;37.28;;;23.92;;
74335;SDS011;62755;-33.398;-70.572;2022-09-12T02:44:44;36.78;;;24.33;;
74335;SDS011;62755;-33.398;-70.572;2022-09-12T02:47:14;31.35;;;20.73;;
74335;SDS011;62755;-33.398;-70.572;2022-09-12T02:49:49;31.30;;;20.20;;
74335;SDS011;62755;-33.398;-70.572;2022-09-12T02:52:19;26.58;;;18.45;;
74335;SDS011;62755;-33.398;-70.572;2022-09-12T02:54:49;32.53;;;17.58;;
74335;SDS011;62755;-33.398;-70.572;2022-09-12T02:57:19;27.63;;;18.33;;
74335;SDS011;62755;-33.398;-70.572;2022-09-12T02:59:49;25.08;;;17.55;;
74335;SDS011;62755;-33.398;-70.572;2022-09-12T03:02:26;31.58;;;16.77;;
74335;SDS011;62755;-33.398;-70.572;2022-09-12T03:08:07;23.73;;;16.33;;
74335;SDS011;62755;-33.398;-70.572;2022-09-12T03:11:05;22.42;;;16.98;;
74335;SDS011;62755;-33.398;-70.572;2022-09-12T03:13:47;27.67;;;15.43;;
74335;SDS011;62755;-33.398;-70.572;2022-09-12T03:16:27;25.88;;;16.52;;
74335;SDS011;62755;-33.398;-70.572;2022-09-12T03:19:02;21.83;;;16.15;;
74335;SDS011;62755;-33.398;-70.572;2022-09-12T03:21:45;22.05;;;16.63;;
74335;SDS011;62755;-33.398;-70.572;2022-09-12T03:24:23;24.25;;;16.33;;
74335;SDS011;62755;-33.398;-70.572;2022-09-12T03:26:58;23.55;;;16.45;;
74335;SDS011;62755;-33.398;-70.572;2022-09-12T03:29:33;22.30;;;16.55;;
74335;SDS011;62755;-33.398;-70.572;2022-09-12T03:32:05;24.70;;;16.58;;
74335;SDS011;62755;-33.398;-70.572;2022-09-12T03:34:35;24.30;;;16.60;;
74335;SDS011;62755;-33.398;-70.572;2022-09-12T03:37:06;25.98;;;16.63;;
74335;SDS011;62755;-33.398;-70.572;2022-09-12T03:39:36;23.23;;;16.90;;
74335;SDS011;62755;-33.398;-70.572;2022-09-12T03:42:05;28.00;;;17.58;;
74335;SDS011;62755;-33.398;-70.572;2022-09-12T03:44:35;37.63;;;18.08;;
74335;SDS011;62755;-33.398;-70.572;2022-09-12T03:47:04;27.02;;;17.58;;
74335;SDS011;62755;-33.398;-70.572;2022-09-12T03:49:34;25.90;;;17.58;;
74335;SDS011;62755;-33.398;-70.572;2022-09-12T03:52:03;25.70;;;17.40;;
74335;SDS011;62755;-33.398;-70.572;2022-09-12T03:54:35;25.25;;;18.23;;
74335;SDS011;62755;-33.398;-70.572;2022-09-12T03:57:05;26.60;;;17.80;;
74335;SDS011;62755;-33.398;-70.572;2022-09-12T03:59:34;29.27;;;19.13;;
74335;SDS011;62755;-33.398;-70.572;2022-09-12T04:02:04;32.80;;;20.08;;
74335;SDS011;62755;-33.398;-70.572;2022-09-12T04:04:34;33.80;;;19.80;;
74335;SDS011;62755;-33.398;-70.572;2022-09-12T04:07:04;32.55;;;20.73;;
74335;SDS011;62755;-33.398;-70.572;2022-09-12T04:09:35;30.05;;;20.63;;
74335;SDS011;62755;-33.398;-70.572;2022-09-12T04:12:05;30.83;;;19.75;;
74335;SDS011;62755;-33.398;-70.572;2022-09-12T04:14:35;28.85;;;19.48;;
74335;SDS011;62755;-33.398;-70.572;2022-09-12T04:17:04;25.17;;;19.55;;
74335;SDS011;62755;-33.398;-70.572;2022-09-12T04:19:34;28.52;;;19.95;;
74335;SDS011;62755;-33.398;-70.572;2022-09-12T04:22:04;31.08;;;21.08;;
74335;SDS011;62755;-33.398;-70.572;2022-09-12T04:24:35;31.75;;;20.38;;
74335;SDS011;62755;-33.398;-70.572;2022-09-12T04:27:04;29.58;;;19.35;;
74335;SDS011;62755;-33.398;-70.572;2022-09-12T04:29:34;29.83;;;19.25;;
74335;SDS011;62755;-33.398;-70.572;2022-09-12T04:32:04;27.67;;;19.80;;
74335;SDS011;62755;-33.398;-70.572;2022-09-12T04:34:33;30.65;;;19.23;;
74335;SDS011;62755;-33.398;-70.572;2022-09-12T04:37:04;28.92;;;19.92;;
74335;SDS011;62755;-33.398;-70.572;2022-09-12T04:39:36;29.15;;;19.85;;
74335;SDS011;62755;-33.398;-70.572;2022-09-12T04:42:06;31.27;;;19.35;;
74335;SDS011;62755;-33.398;-70.572;2022-09-12T04:44:35;34.35;;;20.98;;
74335;SDS011;62755;-33.398;-70.572;2022-09-12T04:47:05;27.17;;;19.02;;
74335;SDS011;62755;-33.398;-70.572;2022-09-12T04:49:35;28.95;;;20.55;;
74335;SDS011;62755;-33.398;-70.572;2022-09-12T04:52:06;29.83;;;19.48;;
74335;SDS011;62755;-33.398;-70.572;2022-09-12T04:54:36;28.25;;;18.75;;
74335;SDS011;62755;-33.398;-70.572;2022-09-12T04:57:05;27.27;;;18.25;;
74335;SDS011;62755;-33.398;-70.572;2022-09-12T04:59:35;28.10;;;19.42;;
74335;SDS011;62755;-33.398;-70.572;2022-09-12T05:02:05;23.45;;;17.55;;
74335;SDS011;62755;-33.398;-70.572;2022-09-12T05:04:35;26.45;;;17.67;;
74335;SDS011;62755;-33.398;-70.572;2022-09-12T05:07:06;24.23;;;17.35;;
74335;SDS011;62755;-33.398;-70.572;2022-09-12T05:09:36;27.08;;;17.73;;
74335;SDS011;62755;-33.398;-70.572;2022-09-12T05:12:06;26.02;;;17.20;;
74335;SDS011;62755;-33.398;-70.572;2022-09-12T05:14:36;25.17;;;18.17;;
74335;SDS011;62755;-33.398;-70.572;2022-09-12T05:17:05;25.02;;;17.25;;
74335;SDS011;62755;-33.398;-70.572;2022-09-12T05:19:35;29.02;;;18.50;;
74335;SDS011;62755;-33.398;-70.572;2022-09-12T05:22:06;26.60;;;18.50;;
74335;SDS011;62755;-33.398;-70.572;2022-09-12T05:24:36;27.02;;;19.52;;
74335;SDS011;62755;-33.398;-70.572;2022-09-12T05:27:08;21.95;;;17.30;;
74335;SDS011;62755;-33.398;-70.572;2022-09-12T05:29:37;25.35;;;18.48;;
74335;SDS011;62755;-33.398;-70.572;2022-09-12T05:32:07;27.48;;;18.67;;
74335;SDS011;62755;-33.398;-70.572;2022-09-12T05:34:37;29.75;;;20.48;;
74335;SDS011;62755;-33.398;-70.572;2022-09-12T05:37:09;32.63;;;20.02;;
74335;SDS011;62755;-33.398;-70.572;2022-09-12T05:39:38;30.80;;;19.08;;
74335;SDS011;62755;-33.398;-70.572;2022-09-12T05:42:08;28.25;;;21.08;;
74335;SDS011;62755;-33.398;-70.572;2022-09-12T05:44:38;30.17;;;20.05;;
74335;SDS011;62755;-33.398;-70.572;2022-09-12T05:47:07;29.02;;;19.38;;
74335;SDS011;62755;-33.398;-70.572;2022-09-12T05:49:39;27.63;;;19.83;;
74335;SDS011;62755;-33.398;-70.572;2022-09-12T05:52:11;28.13;;;19.20;;
74335;SDS011;62755;-33.398;-70.572;2022-09-12T05:54:41;27.27;;;20.00;;
74335;SDS011;62755;-33.398;-70.572;2022-09-12T05:57:12;28.02;;;18.83;;
74335;SDS011;62755;-33.398;-70.572;2022-09-12T05:59:41;27.83;;;19.95;;
74335;SDS011;62755;-33.398;-70.572;2022-09-12T06:02:11;27.83;;;21.17;;
74335;SDS011;62755;-33.398;-70.572;2022-09-12T06:04:41;32.90;;;21.40;;
74335;SDS011;62755;-33.398;-70.572;2022-09-12T06:07:12;27.40;;;20.50;;
74335;SDS011;62755;-33.398;-70.572;2022-09-12T06:09:42;26.75;;;19.33;;
74335;SDS011;62755;-33.398;-70.572;2022-09-12T06:12:11;29.17;;;20.98;;
74335;SDS011;62755;-33.398;-70.572;2022-09-12T06:14:41;30.95;;;19.73;;
74335;SDS011;62755;-33.398;-70.572;2022-09-12T06:17:10;29.35;;;18.67;;
74335;SDS011;62755;-33.398;-70.572;2022-09-12T06:19:39;31.10;;;20.20;;
74335;SDS011;62755;-33.398;-70.572;2022-09-12T06:22:09;28.30;;;19.63;;
74335;SDS011;62755;-33.398;-70.572;2022-09-12T06:24:41;28.63;;;20.85;;
74335;SDS011;62755;-33.398;-70.572;2022-09-12T06:27:10;29.60;;;19.92;;
74335;SDS011;62755;-33.398;-70.572;2022-09-12T06:29:40;27.73;;;19.88;;
74335;SDS011;62755;-33.398;-70.572;2022-09-12T06:32:11;30.90;;;22.00;;
74335;SDS011;62755;-33.398;-70.572;2022-09-12T06:34:40;34.25;;;22.02;;
74335;SDS011;62755;-33.398;-70.572;2022-09-12T06:37:14;32.85;;;22.10;;
74335;SDS011;62755;-33.398;-70.572;2022-09-12T06:39:43;32.53;;;20.98;;
74335;SDS011;62755;-33.398;-70.572;2022-09-12T06:42:13;29.65;;;20.77;;
74335;SDS011;62755;-33.398;-70.572;2022-09-12T06:44:44;28.75;;;19.23;;
74335;SDS011;62755;-33.398;-70.572;2022-09-12T06:47:15;30.88;;;18.65;;
74335;SDS011;62755;-33.398;-70.572;2022-09-12T06:49:45;27.27;;;19.35;;
74335;SDS011;62755;-33.398;-70.572;2022-09-12T06:52:17;27.00;;;19.13;;
74335;SDS011;62755;-33.398;-70.572;2022-09-12T06:54:46;26.77;;;18.40;;
74335;SDS011;62755;-33.398;-70.572;2022-09-12T06:57:16;28.35;;;18.40;;
74335;SDS011;62755;-33.398;-70.572;2022-09-12T06:59:46;26.50;;;18.05;;
74335;SDS011;62755;-33.398;-70.572;2022-09-12T07:02:16;22.70;;;16.60;;
74335;SDS011;62755;-33.398;-70.572;2022-09-12T07:04:46;27.65;;;18.10;;
74335;SDS011;62755;-33.398;-70.572;2022-09-12T07:07:18;27.48;;;17.73;;
74335;SDS011;62755;-33.398;-70.572;2022-09-12T07:09:48;22.75;;;17.45;;
74335;SDS011;62755;-33.398;-70.572;2022-09-12T07:12:17;23.98;;;17.33;;
74335;SDS011;62755;-33.398;-70.572;2022-09-12T07:14:47;28.80;;;18.55;;
74335;SDS011;62755;-33.398;-70.572;2022-09-12T07:17:17;24.08;;;17.23;;
74335;SDS011;62755;-33.398;-70.572;2022-09-12T07:19:46;28.38;;;18.15;;
74335;SDS011;62755;-33.398;-70.572;2022-09-12T07:22:16;26.95;;;16.52;;
74335;SDS011;62755;-33.398;-70.572;2022-09-12T07:24:47;22.13;;;15.77;;
74335;SDS011;62755;-33.398;-70.572;2022-09-12T07:27:18;24.60;;;14.85;;
74335;SDS011;62755;-33.398;-70.572;2022-09-12T07:29:48;25.52;;;13.55;;
74335;SDS011;62755;-33.398;-70.572;2022-09-12T07:32:18;18.10;;;12.60;;
74335;SDS011;62755;-33.398;-70.572;2022-09-12T07:34:47;18.48;;;13.70;;
74335;SDS011;62755;-33.398;-70.572;2022-09-12T07:37:17;18.52;;;13.40;;
74335;SDS011;62755;-33.398;-70.572;2022-09-12T07:39:50;20.98;;;14.18;;
74335;SDS011;62755;-33.398;-70.572;2022-09-12T07:42:19;19.73;;;12.75;;
74335;SDS011;62755;-33.398;-70.572;2022-09-12T07:44:48;17.45;;;12.85;;
74335;SDS011;62755;-33.398;-70.572;2022-09-12T07:47:18;19.45;;;12.57;;
74335;SDS011;62755;-33.398;-70.572;2022-09-12T07:49:48;17.55;;;12.80;;
74335;SDS011;62755;-33.398;-70.572;2022-09-12T07:52:17;17.08;;;11.82;;
74335;SDS011;62755;-33.398;-70.572;2022-09-12T07:54:49;19.20;;;13.45;;
74335;SDS011;62755;-33.398;-70.572;2022-09-12T07:57:18;17.50;;;12.05;;
74335;SDS011;62755;-33.398;-70.572;2022-09-12T07:59:48;16.52;;;12.27;;
74335;SDS011;62755;-33.398;-70.572;2022-09-12T08:02:17;18.52;;;12.32;;
74335;SDS011;62755;-33.398;-70.572;2022-09-12T08:04:48;20.58;;;12.30;;
74335;SDS011;62755;-33.398;-70.572;2022-09-12T08:07:20;18.70;;;11.68;;
74335;SDS011;62755;-33.398;-70.572;2022-09-12T08:09:49;19.63;;;11.57;;
74335;SDS011;62755;-33.398;-70.572;2022-09-12T08:12:20;19.35;;;12.07;;
74335;SDS011;62755;-33.398;-70.572;2022-09-12T08:14:49;16.83;;;11.45;;
74335;SDS011;62755;-33.398;-70.572;2022-09-12T08:17:19;14.52;;;10.10;;
74335;SDS011;62755;-33.398;-70.572;2022-09-12T08:19:48;14.95;;;10.23;;
74335;SDS011;62755;-33.398;-70.572;2022-09-12T08:22:18;15.20;;;10.10;;
74335;SDS011;62755;-33.398;-70.572;2022-09-12T08:24:50;14.93;;;10.00;;
74335;SDS011;62755;-33.398;-70.572;2022-09-12T08:27:20;13.85;;;10.20;;
74335;SDS011;62755;-33.398;-70.572;2022-09-12T08:29:49;16.67;;;9.82;;
74335;SDS011;62755;-33.398;-70.572;2022-09-12T08:32:20;15.48;;;9.10;;
74335;SDS011;62755;-33.398;-70.572;2022-09-12T08:34:49;13.98;;;9.82;;
74335;SDS011;62755;-33.398;-70.572;2022-09-12T08:37:21;13.07;;;9.35;;
74335;SDS011;62755;-33.398;-70.572;2022-09-12T08:39:50;12.25;;;8.13;;
74335;SDS011;62755;-33.398;-70.572;2022-09-12T08:42:23;12.57;;;8.70;;
74335;SDS011;62755;-33.398;-70.572;2022-09-12T08:45:07;13.65;;;8.68;;
74335;SDS011;62755;-33.398;-70.572;2022-09-12T08:47:43;14.38;;;8.70;;
74335;SDS011;62755;-33.398;-70.572;2022-09-12T08:50:16;13.75;;;7.82;;
74335;SDS011;62755;-33.398;-70.572;2022-09-12T08:52:52;12.25;;;8.27;;
74335;SDS011;62755;-33.398;-70.572;2022-09-12T08:55:26;13.65;;;8.90;;
74335;SDS011;62755;-33.398;-70.572;2022-09-12T08:57:59;13.55;;;10.50;;
74335;SDS011;62755;-33.398;-70.572;2022-09-12T09:00:38;17.45;;;10.55;;
74335;SDS011;62755;-33.398;-70.572;2022-09-12T09:03:26;16.52;;;10.77;;
74335;SDS011;62755;-33.398;-70.572;2022-09-12T09:06:28;14.27;;;10.23;;
74335;SDS011;62755;-33.398;-70.572;2022-09-12T09:09:10;17.13;;;10.90;;
74335;SDS011;62755;-33.398;-70.572;2022-09-12T09:11:50;15.93;;;11.40;;
74335;SDS011;62755;-33.398;-70.572;2022-09-12T09:14:34;19.27;;;11.02;;
74335;SDS011;62755;-33.398;-70.572;2022-09-12T09:17:17;17.80;;;10.80;;
74335;SDS011;62755;-33.398;-70.572;2022-09-12T09:19:54;18.52;;;10.85;;
74335;SDS011;62755;-33.398;-70.572;2022-09-12T09:22:33;15.73;;;11.00;;
74335;SDS011;62755;-33.398;-70.572;2022-09-12T09:25:12;16.88;;;11.25;;
74335;SDS011;62755;-33.398;-70.572;2022-09-12T09:27:47;16.85;;;11.10;;
74335;SDS011;62755;-33.398;-70.572;2022-09-12T09:30:20;19.10;;;11.60;;
74335;SDS011;62755;-33.398;-70.572;2022-09-12T09:32:50;17.88;;;11.68;;
74335;SDS011;62755;-33.398;-70.572;2022-09-12T09:35:24;16.50;;;11.23;;
74335;SDS011;62755;-33.398;-70.572;2022-09-12T09:38:00;16.38;;;10.10;;
74335;SDS011;62755;-33.398;-70.572;2022-09-12T09:40:39;16.40;;;10.85;;
74335;SDS011;62755;-33.398;-70.572;2022-09-12T09:43:19;18.85;;;12.48;;
74335;SDS011;62755;-33.398;-70.572;2022-09-12T09:45:53;17.80;;;11.40;;
74335;SDS011;62755;-33.398;-70.572;2022-09-12T09:48:25;18.08;;;11.25;;
74335;SDS011;62755;-33.398;-70.572;2022-09-12T09:50:58;19.85;;;11.13;;
74335;SDS011;62755;-33.398;-70.572;2022-09-12T09:53:30;19.63;;;12.13;;
74335;SDS011;62755;-33.398;-70.572;2022-09-12T09:56:08;18.75;;;12.18;;
74335;SDS011;62755;-33.398;-70.572;2022-09-12T09:58:42;19.73;;;12.90;;
74335;SDS011;62755;-33.398;-70.572;2022-09-12T10:01:13;19.42;;;12.63;;
74335;SDS011;62755;-33.398;-70.572;2022-09-12T10:03:48;19.42;;;12.32;;
74335;SDS011;62755;-33.398;-70.572;2022-09-12T10:06:22;19.10;;;12.02;;
74335;SDS011;62755;-33.398;-70.572;2022-09-12T10:09:04;24.50;;;13.27;;
74335;SDS011;62755;-33.398;-70.572;2022-09-12T10:11:46;21.33;;;12.52;;
74335;SDS011;62755;-33.398;-70.572;2022-09-12T10:14:31;26.00;;;13.63;;
74335;SDS011;62755;-33.398;-70.572;2022-09-12T10:19:56;22.33;;;12.30;;
74335;SDS011;62755;-33.398;-70.572;2022-09-12T10:22:26;21.23;;;11.93;;
74335;SDS011;62755;-33.398;-70.572;2022-09-12T10:24:57;22.58;;;11.48;;
74335;SDS011;62755;-33.398;-70.572;2022-09-12T10:27:29;21.33;;;11.77;;
74335;SDS011;62755;-33.398;-70.572;2022-09-12T10:30:00;19.27;;;12.00;;
74335;SDS011;62755;-33.398;-70.572;2022-09-12T10:32:33;19.02;;;12.25;;
74335;SDS011;62755;-33.398;-70.572;2022-09-12T10:35:05;22.08;;;11.90;;
74335;SDS011;62755;-33.398;-70.572;2022-09-12T10:37:49;20.35;;;12.05;;
74335;SDS011;62755;-33.398;-70.572;2022-09-12T10:40:22;19.58;;;13.10;;
74335;SDS011;62755;-33.398;-70.572;2022-09-12T10:42:56;27.30;;;14.77;;
74335;SDS011;62755;-33.398;-70.572;2022-09-12T10:45:27;26.73;;;16.33;;
74335;SDS011;62755;-33.398;-70.572;2022-09-12T10:47:58;29.42;;;15.25;;
74335;SDS011;62755;-33.398;-70.572;2022-09-12T10:50:29;27.80;;;15.43;;
74335;SDS011;62755;-33.398;-70.572;2022-09-12T10:53:17;24.70;;;16.23;;
74335;SDS011;62755;-33.398;-70.572;2022-09-12T10:56:05;26.15;;;15.48;;
74335;SDS011;62755;-33.398;-70.572;2022-09-12T11:01:40;31.05;;;15.18;;
74335;SDS011;62755;-33.398;-70.572;2022-09-12T11:04:23;22.45;;;12.73;;
74335;SDS011;62755;-33.398;-70.572;2022-09-12T11:07:06;19.02;;;12.18;;
74335;SDS011;62755;-33.398;-70.572;2022-09-12T11:09:51;23.13;;;13.50;;
74335;SDS011;62755;-33.398;-70.572;2022-09-12T11:12:31;23.45;;;13.38;;
74335;SDS011;62755;-33.398;-70.572;2022-09-12T11:15:14;20.98;;;13.05;;
74335;SDS011;62755;-33.398;-70.572;2022-09-12T11:17:59;25.15;;;13.73;;
74335;SDS011;62755;-33.398;-70.572;2022-09-12T11:20:42;26.23;;;14.07;;
74335;SDS011;62755;-33.398;-70.572;2022-09-12T11:23:31;27.25;;;14.98;;
74335;SDS011;62755;-33.398;-70.572;2022-09-12T11:26:21;25.40;;;13.67;;
74335;SDS011;62755;-33.398;-70.572;2022-09-12T11:29:01;22.80;;;14.02;;
74335;SDS011;62755;-33.398;-70.572;2022-09-12T11:31:44;22.15;;;13.13;;
74335;SDS011;62755;-33.398;-70.572;2022-09-12T11:34:31;29.58;;;13.43;;
74335;SDS011;62755;-33.398;-70.572;2022-09-12T11:37:17;31.60;;;12.98;;
74335;SDS011;62755;-33.398;-70.572;2022-09-12T11:40:02;35.05;;;13.30;;
74335;SDS011;62755;-33.398;-70.572;2022-09-12T11:42:41;30.02;;;13.52;;
74335;SDS011;62755;-33.398;-70.572;2022-09-12T11:45:12;28.05;;;12.52;;
74335;SDS011;62755;-33.398;-70.572;2022-09-12T11:47:47;26.45;;;12.48;;
74335;SDS011;62755;-33.398;-70.572;2022-09-12T11:50:22;24.67;;;12.80;;
74335;SDS011;62755;-33.398;-70.572;2022-09-12T11:52:55;28.00;;;13.35;;
74335;SDS011;62755;-33.398;-70.572;2022-09-12T11:55:35;20.30;;;13.55;;
74335;SDS011;62755;-33.398;-70.572;2022-09-12T11:58:11;26.75;;;14.57;;
74335;SDS011;62755;-33.398;-70.572;2022-09-12T12:00:43;30.15;;;16.77;;
74335;SDS011;62755;-33.398;-70.572;2022-09-12T12:03:17;23.33;;;14.75;;
74335;SDS011;62755;-33.398;-70.572;2022-09-12T12:05:54;26.92;;;15.80;;
74335;SDS011;62755;-33.398;-70.572;2022-09-12T12:08:29;25.60;;;16.20;;
74335;SDS011;62755;-33.398;-70.572;2022-09-12T12:11:00;24.52;;;16.38;;
74335;SDS011;62755;-33.398;-70.572;2022-09-12T12:13:30;29.65;;;16.08;;
74335;SDS011;62755;-33.398;-70.572;2022-09-12T12:16:04;26.98;;;17.88;;
74335;SDS011;62755;-33.398;-70.572;2022-09-12T12:18:37;26.75;;;17.17;;
74335;SDS011;62755;-33.398;-70.572;2022-09-12T12:21:19;30.25;;;18.73;;
74335;SDS011;62755;-33.398;-70.572;2022-09-12T12:24:02;30.90;;;18.67;;
74335;SDS011;62755;-33.398;-70.572;2022-09-12T12:26:42;31.58;;;20.00;;
74335;SDS011;62755;-33.398;-70.572;2022-09-12T12:35:14;37.45;;;19.52;;
74335;SDS011;62755;-33.398;-70.572;2022-09-12T12:38:11;39.30;;;21.17;;
74335;SDS011;62755;-33.398;-70.572;2022-09-12T12:41:10;34.50;;;20.27;;
74335;SDS011;62755;-33.398;-70.572;2022-09-12T12:47:18;33.25;;;22.45;;
74335;SDS011;62755;-33.398;-70.572;2022-09-12T12:49:51;40.95;;;22.40;;
74335;SDS011;62755;-33.398;-70.572;2022-09-12T12:52:25;34.83;;;23.23;;
74335;SDS011;62755;-33.398;-70.572;2022-09-12T12:54:58;36.55;;;22.27;;
74335;SDS011;62755;-33.398;-70.572;2022-09-12T12:57:35;40.55;;;22.80;;
74335;SDS011;62755;-33.398;-70.572;2022-09-12T13:00:27;34.28;;;22.75;;
74335;SDS011;62755;-33.398;-70.572;2022-09-12T13:05:41;34.47;;;21.80;;
74335;SDS011;62755;-33.398;-70.572;2022-09-12T13:08:25;32.30;;;20.52;;
74335;SDS011;62755;-33.398;-70.572;2022-09-12T13:10:58;39.33;;;20.75;;
74335;SDS011;62755;-33.398;-70.572;2022-09-12T13:13:30;34.10;;;22.17;;
74335;SDS011;62755;-33.398;-70.572;2022-09-12T13:16:03;41.17;;;22.90;;
74335;SDS011;62755;-33.398;-70.572;2022-09-12T13:18:38;34.88;;;23.10;;
74335;SDS011;62755;-33.398;-70.572;2022-09-12T13:21:11;40.00;;;22.98;;
74335;SDS011;62755;-33.398;-70.572;2022-09-12T13:23:43;39.38;;;22.08;;
74335;SDS011;62755;-33.398;-70.572;2022-09-12T13:26:26;44.38;;;23.45;;
74335;SDS011;62755;-33.398;-70.572;2022-09-12T13:29:10;41.58;;;23.48;;
74335;SDS011;62755;-33.398;-70.572;2022-09-12T13:31:42;31.42;;;22.20;;
74335;SDS011;62755;-33.398;-70.572;2022-09-12T13:34:15;37.22;;;21.88;;
74335;SDS011;62755;-33.398;-70.572;2022-09-12T13:36:54;40.03;;;22.80;;
74335;SDS011;62755;-33.398;-70.572;2022-09-12T13:39:46;41.47;;;21.77;;
74335;SDS011;62755;-33.398;-70.572;2022-09-12T13:45:09;37.22;;;23.00;;
74335;SDS011;62755;-33.398;-70.572;2022-09-12T13:47:46;32.22;;;21.90;;
74335;SDS011;62755;-33.398;-70.572;2022-09-12T13:50:18;38.10;;;23.67;;
74335;SDS011;62755;-33.398;-70.572;2022-09-12T13:52:50;34.90;;;22.13;;
74335;SDS011;62755;-33.398;-70.572;2022-09-12T13:55:28;34.05;;;23.05;;
74335;SDS011;62755;-33.398;-70.572;2022-09-12T13:57:59;36.85;;;24.08;;
74335;SDS011;62755;-33.398;-70.572;2022-09-12T14:00:30;36.28;;;25.08;;
74335;SDS011;62755;-33.398;-70.572;2022-09-12T14:03:11;36.50;;;24.63;;
74335;SDS011;62755;-33.398;-70.572;2022-09-12T14:06:09;39.40;;;25.38;;
74335;SDS011;62755;-33.398;-70.572;2022-09-12T14:08:44;40.28;;;25.88;;
74335;SDS011;62755;-33.398;-70.572;2022-09-12T14:11:22;46.33;;;25.27;;
74335;SDS011;62755;-33.398;-70.572;2022-09-12T14:13:54;50.17;;;26.48;;
74335;SDS011;62755;-33.398;-70.572;2022-09-12T14:16:24;50.00;;;28.58;;
74335;SDS011;62755;-33.398;-70.572;2022-09-12T14:18:53;48.60;;;28.83;;
74335;SDS011;62755;-33.398;-70.572;2022-09-12T14:21:33;48.08;;;32.17;;
74335;SDS011;62755;-33.398;-70.572;2022-09-12T14:24:05;45.80;;;30.33;;
74335;SDS011;62755;-33.398;-70.572;2022-09-12T14:26:40;44.42;;;29.80;;
74335;SDS011;62755;-33.398;-70.572;2022-09-12T14:29:12;49.33;;;32.08;;
74335;SDS011;62755;-33.398;-70.572;2022-09-12T14:31:44;40.30;;;28.90;;
74335;SDS011;62755;-33.398;-70.572;2022-09-12T14:34:14;48.88;;;28.38;;
74335;SDS011;62755;-33.398;-70.572;2022-09-12T14:36:45;39.83;;;26.42;;
74335;SDS011;62755;-33.398;-70.572;2022-09-12T14:39:20;36.72;;;27.00;;
74335;SDS011;62755;-33.398;-70.572;2022-09-12T14:42:04;44.33;;;27.25;;
74335;SDS011;62755;-33.398;-70.572;2022-09-12T14:44:38;43.05;;;27.75;;
74335;SDS011;62755;-33.398;-70.572;2022-09-12T14:47:12;42.22;;;27.67;;
74335;SDS011;62755;-33.398;-70.572;2022-09-12T14:52:21;39.75;;;27.88;;
74335;SDS011;62755;-33.398;-70.572;2022-09-12T14:54:57;40.05;;;28.42;;
74335;SDS011;62755;-33.398;-70.572;2022-09-12T14:57:34;39.78;;;30.00;;